sensor_id;sensor_type;location;lat;lon;timestamp;temperature;humidity
42989;DHT22;28622;43.716;20.668;2022-10-23T00:01:35;15.20;99.90
42989;DHT22;28622;43.716;20.668;2022-10-23T00:04:04;15.10;99.90
42989;DHT22;28622;43.716;20.668;2022-10-23T00:06:32;15.00;99.90
42989;DHT22;28622;43.716;20.668;2022-10-23T00:08:58;14.90;99.90
42989;DHT22;28622;43.716;20.668;2022-10-23T00:11:27;14.80;99.90
42989;DHT22;28622;43.716;20.668;2022-10-23T00:13:56;14.80;99.90
42989;DHT22;28622;43.716;20.668;2022-10-23T00:16:22;14.80;99.90
42989;DHT22;28622;43.716;20.668;2022-10-23T00:18:47;14.80;99.90
42989;DHT22;28622;43.716;20.668;2022-10-23T00:21:15;14.60;99.90
42989;DHT22;28622;43.716;20.668;2022-10-23T00:23:41;14.60;99.90
42989;DHT22;28622;43.716;20.668;2022-10-23T00:26:08;14.60;99.90
42989;DHT22;28622;43.716;20.668;2022-10-23T00:28:36;14.60;99.90
42989;DHT22;28622;43.716;20.668;2022-10-23T00:31:05;14.60;99.90
42989;DHT22;28622;43.716;20.668;2022-10-23T00:33:31;14.60;99.90
42989;DHT22;28622;43.716;20.668;2022-10-23T00:35:57;14.60;99.90
42989;DHT22;28622;43.716;20.668;2022-10-23T00:38:24;14.60;99.90
42989;DHT22;28622;43.716;20.668;2022-10-23T00:40:50;14.60;99.90
42989;DHT22;28622;43.716;20.668;2022-10-23T00:43:21;14.60;99.90
42989;DHT22;28622;43.716;20.668;2022-10-23T00:45:47;14.60;99.90
42989;DHT22;28622;43.716;20.668;2022-10-23T00:48:14;14.50;99.90
42989;DHT22;28622;43.716;20.668;2022-10-23T00:50:40;14.40;99.90
42989;DHT22;28622;43.716;20.668;2022-10-23T00:53:07;14.30;99.90
42989;DHT22;28622;43.716;20.668;2022-10-23T00:55:34;14.20;99.90
42989;DHT22;28622;43.716;20.668;2022-10-23T00:58:00;14.20;99.90
42989;DHT22;28622;43.716;20.668;2022-10-23T01:00:29;14.20;99.90
42989;DHT22;28622;43.716;20.668;2022-10-23T01:02:56;14.10;99.90
42989;DHT22;28622;43.716;20.668;2022-10-23T01:05:28;14.10;99.90
42989;DHT22;28622;43.716;20.668;2022-10-23T01:08:01;14.10;99.90
42989;DHT22;28622;43.716;20.668;2022-10-23T01:10:35;14.10;99.90
42989;DHT22;28622;43.716;20.668;2022-10-23T01:13:11;14.00;99.90
42989;DHT22;28622;43.716;20.668;2022-10-23T01:18:31;14.00;99.90
42989;DHT22;28622;43.716;20.668;2022-10-23T01:21:21;14.10;99.90
42989;DHT22;28622;43.716;20.668;2022-10-23T01:26:57;14.10;99.90
42989;DHT22;28622;43.716;20.668;2022-10-23T01:29:34;14.20;99.90
42989;DHT22;28622;43.716;20.668;2022-10-23T01:35:28;14.20;99.90
42989;DHT22;28622;43.716;20.668;2022-10-23T01:38:03;14.20;99.90
42989;DHT22;28622;43.716;20.668;2022-10-23T01:40:31;14.10;99.90
42989;DHT22;28622;43.716;20.668;2022-10-23T01:43:03;14.00;99.90
42989;DHT22;28622;43.716;20.668;2022-10-23T01:45:52;13.80;99.90
42989;DHT22;28622;43.716;20.668;2022-10-23T01:48:23;13.80;99.90
42989;DHT22;28622;43.716;20.668;2022-10-23T01:50:52;13.70;99.90
42989;DHT22;28622;43.716;20.668;2022-10-23T01:53:20;13.60;99.90
42989;DHT22;28622;43.716;20.668;2022-10-23T01:55:47;13.60;99.90
42989;DHT22;28622;43.716;20.668;2022-10-23T01:58:15;13.60;99.90
42989;DHT22;28622;43.716;20.668;2022-10-23T02:00:44;13.50;99.90
42989;DHT22;28622;43.716;20.668;2022-10-23T02:03:12;13.50;99.90
42989;DHT22;28622;43.716;20.668;2022-10-23T02:05:39;13.50;99.90
42989;DHT22;28622;43.716;20.668;2022-10-23T02:08:05;13.50;99.90
42989;DHT22;28622;43.716;20.668;2022-10-23T02:10:40;13.50;99.90
42989;DHT22;28622;43.716;20.668;2022-10-23T02:15:48;13.50;99.90
42989;DHT22;28622;43.716;20.668;2022-10-23T02:18:26;13.50;99.90
42989;DHT22;28622;43.716;20.668;2022-10-23T02:21:33;13.50;99.90
42989;DHT22;28622;43.716;20.668;2022-10-23T02:24:06;13.50;99.90
42989;DHT22;28622;43.716;20.668;2022-10-23T02:29:24;13.60;99.90
42989;DHT22;28622;43.716;20.668;2022-10-23T02:31:51;13.50;99.90
42989;DHT22;28622;43.716;20.668;2022-10-23T02:34:17;13.50;99.90
42989;DHT22;28622;43.716;20.668;2022-10-23T02:36:43;13.50;99.90
42989;DHT22;28622;43.716;20.668;2022-10-23T02:39:08;13.40;99.90
42989;DHT22;28622;43.716;20.668;2022-10-23T02:44:27;13.50;99.90
42989;DHT22;28622;43.716;20.668;2022-10-23T02:52:24;13.60;99.90
42989;DHT22;28622;43.716;20.668;2022-10-23T02:57:41;13.70;99.90
42989;DHT22;28622;43.716;20.668;2022-10-23T03:00:14;13.70;99.90
42989;DHT22;28622;43.716;20.668;2022-10-23T03:02:56;13.70;99.90
42989;DHT22;28622;43.716;20.668;2022-10-23T03:05:27;13.70;99.90
42989;DHT22;28622;43.716;20.668;2022-10-23T03:07:54;13.50;99.90
42989;DHT22;28622;43.716;20.668;2022-10-23T03:10:20;13.50;99.90
42989;DHT22;28622;43.716;20.668;2022-10-23T03:12:46;13.40;99.90
42989;DHT22;28622;43.716;20.668;2022-10-23T03:15:13;13.30;99.90
42989;DHT22;28622;43.716;20.668;2022-10-23T03:17:40;13.30;99.90
42989;DHT22;28622;43.716;20.668;2022-10-23T03:20:06;13.30;99.90
42989;DHT22;28622;43.716;20.668;2022-10-23T03:22:32;13.30;99.90
42989;DHT22;28622;43.716;20.668;2022-10-23T03:24:58;13.40;99.90
42989;DHT22;28622;43.716;20.668;2022-10-23T03:27:23;13.40;99.90
42989;DHT22;28622;43.716;20.668;2022-10-23T03:29:49;13.50;99.90
42989;DHT22;28622;43.716;20.668;2022-10-23T03:32:15;13.40;99.90
42989;DHT22;28622;43.716;20.668;2022-10-23T03:34:41;13.40;99.90
42989;DHT22;28622;43.716;20.668;2022-10-23T03:37:07;13.40;99.90
42989;DHT22;28622;43.716;20.668;2022-10-23T03:39:33;13.40;99.90
42989;DHT22;28622;43.716;20.668;2022-10-23T03:41:58;13.40;99.90
42989;DHT22;28622;43.716;20.668;2022-10-23T03:44:24;13.50;99.90
42989;DHT22;28622;43.716;20.668;2022-10-23T03:46:50;13.60;99.90
42989;DHT22;28622;43.716;20.668;2022-10-23T03:49:16;13.60;99.90
42989;DHT22;28622;43.716;20.668;2022-10-23T03:51:42;13.70;99.90
42989;DHT22;28622;43.716;20.668;2022-10-23T03:54:09;13.70;99.90
42989;DHT22;28622;43.716;20.668;2022-10-23T03:56:35;13.70;99.90
42989;DHT22;28622;43.716;20.668;2022-10-23T03:59:01;13.70;99.90
42989;DHT22;28622;43.716;20.668;2022-10-23T04:01:27;13.70;99.90
42989;DHT22;28622;43.716;20.668;2022-10-23T04:03:53;13.70;99.90
42989;DHT22;28622;43.716;20.668;2022-10-23T04:06:19;13.70;99.90
42989;DHT22;28622;43.716;20.668;2022-10-23T04:08:45;13.70;99.90
42989;DHT22;28622;43.716;20.668;2022-10-23T04:11:10;13.70;99.90
42989;DHT22;28622;43.716;20.668;2022-10-23T04:13:36;13.70;99.90
42989;DHT22;28622;43.716;20.668;2022-10-23T04:16:02;13.60;99.90
42989;DHT22;28622;43.716;20.668;2022-10-23T04:18:28;13.60;99.90
42989;DHT22;28622;43.716;20.668;2022-10-23T04:20:54;13.50;99.90
42989;DHT22;28622;43.716;20.668;2022-10-23T04:23:19;13.50;99.90
42989;DHT22;28622;43.716;20.668;2022-10-23T04:25:45;13.40;99.90
42989;DHT22;28622;43.716;20.668;2022-10-23T04:28:11;13.40;99.90
42989;DHT22;28622;43.716;20.668;2022-10-23T04:30:37;13.40;99.90
42989;DHT22;28622;43.716;20.668;2022-10-23T04:33:03;13.40;99.90
42989;DHT22;28622;43.716;20.668;2022-10-23T04:35:29;13.50;99.90
42989;DHT22;28622;43.716;20.668;2022-10-23T04:37:55;13.50;99.90
42989;DHT22;28622;43.716;20.668;2022-10-23T04:40:20;13.40;99.90
42989;DHT22;28622;43.716;20.668;2022-10-23T04:42:46;13.40;99.90
42989;DHT22;28622;43.716;20.668;2022-10-23T04:45:12;13.40;99.90
42989;DHT22;28622;43.716;20.668;2022-10-23T04:47:38;13.40;99.90
42989;DHT22;28622;43.716;20.668;2022-10-23T04:50:04;13.40;99.90
42989;DHT22;28622;43.716;20.668;2022-10-23T04:52:30;13.40;99.90
42989;DHT22;28622;43.716;20.668;2022-10-23T04:54:55;13.40;99.90
42989;DHT22;28622;43.716;20.668;2022-10-23T04:57:21;13.30;99.90
42989;DHT22;28622;43.716;20.668;2022-10-23T04:59:47;13.30;99.90
42989;DHT22;28622;43.716;20.668;2022-10-23T05:02:13;13.30;99.90
42989;DHT22;28622;43.716;20.668;2022-10-23T05:04:38;13.30;99.90
42989;DHT22;28622;43.716;20.668;2022-10-23T05:07:04;13.30;99.90
42989;DHT22;28622;43.716;20.668;2022-10-23T05:09:30;13.30;99.90
42989;DHT22;28622;43.716;20.668;2022-10-23T05:11:56;13.20;99.90
42989;DHT22;28622;43.716;20.668;2022-10-23T05:14:21;13.20;99.90
42989;DHT22;28622;43.716;20.668;2022-10-23T05:17:11;13.10;99.90
42989;DHT22;28622;43.716;20.668;2022-10-23T05:19:40;13.10;99.90
42989;DHT22;28622;43.716;20.668;2022-10-23T05:22:07;13.10;99.90
42989;DHT22;28622;43.716;20.668;2022-10-23T05:24:34;13.10;99.90
42989;DHT22;28622;43.716;20.668;2022-10-23T05:26:59;13.10;99.90
42989;DHT22;28622;43.716;20.668;2022-10-23T05:29:25;13.10;99.90
42989;DHT22;28622;43.716;20.668;2022-10-23T05:31:54;13.20;99.90
42989;DHT22;28622;43.716;20.668;2022-10-23T05:34:23;13.30;99.90
42989;DHT22;28622;43.716;20.668;2022-10-23T05:36:51;13.30;99.90
42989;DHT22;28622;43.716;20.668;2022-10-23T05:39:18;13.40;99.90
42989;DHT22;28622;43.716;20.668;2022-10-23T05:41:43;13.40;99.90
42989;DHT22;28622;43.716;20.668;2022-10-23T05:44:09;13.40;99.90
42989;DHT22;28622;43.716;20.668;2022-10-23T05:46:42;13.40;99.90
42989;DHT22;28622;43.716;20.668;2022-10-23T05:49:08;13.40;99.90
42989;DHT22;28622;43.716;20.668;2022-10-23T05:51:38;13.50;99.90
42989;DHT22;28622;43.716;20.668;2022-10-23T05:54:05;13.60;99.90
42989;DHT22;28622;43.716;20.668;2022-10-23T05:56:37;13.70;99.90
42989;DHT22;28622;43.716;20.668;2022-10-23T05:59:04;13.70;99.90
42989;DHT22;28622;43.716;20.668;2022-10-23T06:01:32;13.70;99.90
42989;DHT22;28622;43.716;20.668;2022-10-23T06:03:59;13.70;99.90
42989;DHT22;28622;43.716;20.668;2022-10-23T06:06:25;13.70;99.90
42989;DHT22;28622;43.716;20.668;2022-10-23T06:08:51;13.80;99.90
42989;DHT22;28622;43.716;20.668;2022-10-23T06:11:17;13.90;99.90
42989;DHT22;28622;43.716;20.668;2022-10-23T06:13:44;13.90;99.90
42989;DHT22;28622;43.716;20.668;2022-10-23T06:16:15;14.00;99.90
42989;DHT22;28622;43.716;20.668;2022-10-23T06:18:41;14.00;99.90
42989;DHT22;28622;43.716;20.668;2022-10-23T06:21:08;14.10;99.90
42989;DHT22;28622;43.716;20.668;2022-10-23T06:23:35;14.20;99.90
42989;DHT22;28622;43.716;20.668;2022-10-23T06:26:01;14.30;99.90
42989;DHT22;28622;43.716;20.668;2022-10-23T06:28:28;14.40;99.90
42989;DHT22;28622;43.716;20.668;2022-10-23T06:30:53;14.50;99.90
42989;DHT22;28622;43.716;20.668;2022-10-23T06:33:19;14.50;99.90
42989;DHT22;28622;43.716;20.668;2022-10-23T06:35:45;14.60;99.90
42989;DHT22;28622;43.716;20.668;2022-10-23T06:38:12;14.70;99.90
42989;DHT22;28622;43.716;20.668;2022-10-23T06:40:38;14.80;99.90
42989;DHT22;28622;43.716;20.668;2022-10-23T06:43:04;14.90;99.90
42989;DHT22;28622;43.716;20.668;2022-10-23T06:45:32;15.00;99.90
42989;DHT22;28622;43.716;20.668;2022-10-23T06:47:59;15.00;99.90
42989;DHT22;28622;43.716;20.668;2022-10-23T06:50:25;15.10;99.90
42989;DHT22;28622;43.716;20.668;2022-10-23T06:52:52;15.20;99.90
42989;DHT22;28622;43.716;20.668;2022-10-23T06:55:19;15.30;99.90
42989;DHT22;28622;43.716;20.668;2022-10-23T06:57:45;15.30;99.90
42989;DHT22;28622;43.716;20.668;2022-10-23T07:00:11;15.40;99.90
42989;DHT22;28622;43.716;20.668;2022-10-23T07:02:37;15.50;99.90
42989;DHT22;28622;43.716;20.668;2022-10-23T07:05:03;15.60;99.90
42989;DHT22;28622;43.716;20.668;2022-10-23T07:07:29;15.60;99.90
42989;DHT22;28622;43.716;20.668;2022-10-23T07:09:56;15.60;99.90
42989;DHT22;28622;43.716;20.668;2022-10-23T07:12:21;15.60;99.90
42989;DHT22;28622;43.716;20.668;2022-10-23T07:14:47;15.70;99.90
42989;DHT22;28622;43.716;20.668;2022-10-23T07:17:13;15.70;99.90
42989;DHT22;28622;43.716;20.668;2022-10-23T07:19:39;15.70;99.90
42989;DHT22;28622;43.716;20.668;2022-10-23T07:22:04;15.80;99.90
42989;DHT22;28622;43.716;20.668;2022-10-23T07:24:30;15.80;99.90
42989;DHT22;28622;43.716;20.668;2022-10-23T07:27:02;15.90;99.90
42989;DHT22;28622;43.716;20.668;2022-10-23T07:29:27;15.90;99.90
42989;DHT22;28622;43.716;20.668;2022-10-23T07:31:53;15.90;99.90
42989;DHT22;28622;43.716;20.668;2022-10-23T07:34:19;16.10;99.90
42989;DHT22;28622;43.716;20.668;2022-10-23T07:36:45;16.10;99.90
42989;DHT22;28622;43.716;20.668;2022-10-23T07:39:11;16.20;99.90
42989;DHT22;28622;43.716;20.668;2022-10-23T07:41:36;16.30;99.90
42989;DHT22;28622;43.716;20.668;2022-10-23T07:44:02;16.50;99.90
42989;DHT22;28622;43.716;20.668;2022-10-23T07:46:28;16.70;99.90
42989;DHT22;28622;43.716;20.668;2022-10-23T07:48:54;17.00;99.90
42989;DHT22;28622;43.716;20.668;2022-10-23T07:51:20;17.20;99.90
42989;DHT22;28622;43.716;20.668;2022-10-23T07:53:46;17.50;99.90
42989;DHT22;28622;43.716;20.668;2022-10-23T07:56:17;18.00;99.90
42989;DHT22;28622;43.716;20.668;2022-10-23T07:58:45;18.60;99.90
42989;DHT22;28622;43.716;20.668;2022-10-23T08:01:27;19.30;99.90
42989;DHT22;28622;43.716;20.668;2022-10-23T08:03:53;19.70;99.90
42989;DHT22;28622;43.716;20.668;2022-10-23T08:06:19;20.10;99.90
42989;DHT22;28622;43.716;20.668;2022-10-23T08:08:45;20.60;99.90
42989;DHT22;28622;43.716;20.668;2022-10-23T08:11:13;20.70;99.90
42989;DHT22;28622;43.716;20.668;2022-10-23T08:13:39;20.90;99.90
42989;DHT22;28622;43.716;20.668;2022-10-23T08:16:05;21.10;99.90
42989;DHT22;28622;43.716;20.668;2022-10-23T08:18:32;21.50;99.30
42989;DHT22;28622;43.716;20.668;2022-10-23T08:21:02;21.50;99.10
42989;DHT22;28622;43.716;20.668;2022-10-23T08:23:29;21.50;99.60
42989;DHT22;28622;43.716;20.668;2022-10-23T08:26:05;21.70;97.80
42989;DHT22;28622;43.716;20.668;2022-10-23T08:28:31;21.40;98.30
42989;DHT22;28622;43.716;20.668;2022-10-23T08:30:57;21.10;98.90
42989;DHT22;28622;43.716;20.668;2022-10-23T08:33:24;21.00;98.80
42989;DHT22;28622;43.716;20.668;2022-10-23T08:35:50;21.20;98.90
42989;DHT22;28622;43.716;20.668;2022-10-23T08:38:16;21.20;99.10
42989;DHT22;28622;43.716;20.668;2022-10-23T08:40:48;21.20;99.30
42989;DHT22;28622;43.716;20.668;2022-10-23T08:43:34;21.20;99.00
42989;DHT22;28622;43.716;20.668;2022-10-23T08:46:09;21.80;99.30
42989;DHT22;28622;43.716;20.668;2022-10-23T08:48:49;22.20;97.50
42989;DHT22;28622;43.716;20.668;2022-10-23T08:51:39;22.20;96.90
42989;DHT22;28622;43.716;20.668;2022-10-23T08:54:15;22.20;97.30
42989;DHT22;28622;43.716;20.668;2022-10-23T08:56:48;22.00;97.50
42989;DHT22;28622;43.716;20.668;2022-10-23T09:02:19;22.70;96.30
42989;DHT22;28622;43.716;20.668;2022-10-23T09:04:47;22.90;96.70
42989;DHT22;28622;43.716;20.668;2022-10-23T09:12:27;23.50;94.40
42989;DHT22;28622;43.716;20.668;2022-10-23T09:17:31;23.50;94.00
42989;DHT22;28622;43.716;20.668;2022-10-23T09:22:42;24.30;93.10
42989;DHT22;28622;43.716;20.668;2022-10-23T09:25:19;24.40;92.20
42989;DHT22;28622;43.716;20.668;2022-10-23T09:27:51;24.60;92.30
42989;DHT22;28622;43.716;20.668;2022-10-23T09:30:37;24.90;91.70
42989;DHT22;28622;43.716;20.668;2022-10-23T09:33:26;25.10;92.00
42989;DHT22;28622;43.716;20.668;2022-10-23T09:36:46;25.30;91.00
42989;DHT22;28622;43.716;20.668;2022-10-23T09:38:51;25.30;90.10
42989;DHT22;28622;43.716;20.668;2022-10-23T09:41:28;25.10;90.10
42989;DHT22;28622;43.716;20.668;2022-10-23T09:44:01;25.20;90.30
42989;DHT22;28622;43.716;20.668;2022-10-23T09:47:07;25.20;90.00
42989;DHT22;28622;43.716;20.668;2022-10-23T09:49:34;25.60;90.30
42989;DHT22;28622;43.716;20.668;2022-10-23T09:54:55;25.40;88.50
42989;DHT22;28622;43.716;20.668;2022-10-23T10:02:39;25.70;88.30
42989;DHT22;28622;43.716;20.668;2022-10-23T10:05:24;25.90;88.50
42989;DHT22;28622;43.716;20.668;2022-10-23T10:10:26;26.10;86.20
42989;DHT22;28622;43.716;20.668;2022-10-23T10:12:57;26.30;85.50
42989;DHT22;28622;43.716;20.668;2022-10-23T10:15:54;26.70;86.40
42989;DHT22;28622;43.716;20.668;2022-10-23T10:18:55;26.80;85.30
42989;DHT22;28622;43.716;20.668;2022-10-23T10:21:55;26.80;82.80
42989;DHT22;28622;43.716;20.668;2022-10-23T10:27:08;26.60;84.50
42989;DHT22;28622;43.716;20.668;2022-10-23T10:34:50;27.10;80.80
42989;DHT22;28622;43.716;20.668;2022-10-23T10:43:04;26.80;81.40
42989;DHT22;28622;43.716;20.668;2022-10-23T10:48:28;27.40;78.50
42989;DHT22;28622;43.716;20.668;2022-10-23T10:51:16;27.30;78.60
42989;DHT22;28622;43.716;20.668;2022-10-23T10:56:25;27.10;78.10
42989;DHT22;28622;43.716;20.668;2022-10-23T10:59:09;27.20;78.10
42989;DHT22;28622;43.716;20.668;2022-10-23T11:01:58;27.40;76.80
42989;DHT22;28622;43.716;20.668;2022-10-23T11:04:36;27.00;78.70
42989;DHT22;28622;43.716;20.668;2022-10-23T11:07:09;27.40;80.80
42989;DHT22;28622;43.716;20.668;2022-10-23T11:09:38;27.30;77.10
42989;DHT22;28622;43.716;20.668;2022-10-23T11:12:04;27.00;77.30
42989;DHT22;28622;43.716;20.668;2022-10-23T11:14:32;27.20;79.70
42989;DHT22;28622;43.716;20.668;2022-10-23T11:17:07;27.20;77.10
42989;DHT22;28622;43.716;20.668;2022-10-23T11:19:36;27.30;79.70
42989;DHT22;28622;43.716;20.668;2022-10-23T11:22:41;27.30;78.20
42989;DHT22;28622;43.716;20.668;2022-10-23T11:39:14;27.40;77.80
42989;DHT22;28622;43.716;20.668;2022-10-23T11:41:52;27.20;77.30
42989;DHT22;28622;43.716;20.668;2022-10-23T11:47:04;27.00;76.20
42989;DHT22;28622;43.716;20.668;2022-10-23T11:49:30;26.90;76.10
42989;DHT22;28622;43.716;20.668;2022-10-23T11:52:04;26.90;76.10
42989;DHT22;28622;43.716;20.668;2022-10-23T11:57:12;26.60;77.20
42989;DHT22;28622;43.716;20.668;2022-10-23T12:02:26;26.60;77.60
42989;DHT22;28622;43.716;20.668;2022-10-23T12:04:57;26.50;77.70
42989;DHT22;28622;43.716;20.668;2022-10-23T12:07:38;26.60;76.90
42989;DHT22;28622;43.716;20.668;2022-10-23T12:10:19;26.20;78.30
42989;DHT22;28622;43.716;20.668;2022-10-23T12:12:57;26.10;78.30
42989;DHT22;28622;43.716;20.668;2022-10-23T12:15:23;25.80;78.60
42989;DHT22;28622;43.716;20.668;2022-10-23T12:17:54;25.80;80.30
42989;DHT22;28622;43.716;20.668;2022-10-23T12:20:38;25.90;81.10
42989;DHT22;28622;43.716;20.668;2022-10-23T12:28:52;26.50;78.50
42989;DHT22;28622;43.716;20.668;2022-10-23T12:36:42;26.20;78.70
42989;DHT22;28622;43.716;20.668;2022-10-23T12:41:50;25.80;82.30
42989;DHT22;28622;43.716;20.668;2022-10-23T12:44:15;26.00;79.80
42989;DHT22;28622;43.716;20.668;2022-10-23T12:46:46;26.20;81.00
42989;DHT22;28622;43.716;20.668;2022-10-23T12:49:18;26.50;80.80
42989;DHT22;28622;43.716;20.668;2022-10-23T12:51:45;26.70;78.70
42989;DHT22;28622;43.716;20.668;2022-10-23T12:54:19;27.00;80.00
42989;DHT22;28622;43.716;20.668;2022-10-23T12:56:46;27.20;78.10
42989;DHT22;28622;43.716;20.668;2022-10-23T12:59:18;27.40;77.60
42989;DHT22;28622;43.716;20.668;2022-10-23T13:01:45;27.50;76.30
42989;DHT22;28622;43.716;20.668;2022-10-23T13:06:47;27.20;77.40
42989;DHT22;28622;43.716;20.668;2022-10-23T13:09:40;27.00;75.60
42989;DHT22;28622;43.716;20.668;2022-10-23T13:12:07;27.00;79.20
42989;DHT22;28622;43.716;20.668;2022-10-23T13:14:41;26.80;76.00
42989;DHT22;28622;43.716;20.668;2022-10-23T13:17:09;26.60;78.00
42989;DHT22;28622;43.716;20.668;2022-10-23T13:19:36;26.60;81.10
42989;DHT22;28622;43.716;20.668;2022-10-23T13:22:17;26.80;80.50
42989;DHT22;28622;43.716;20.668;2022-10-23T13:24:44;26.60;76.50
42989;DHT22;28622;43.716;20.668;2022-10-23T13:29:54;26.40;81.90
42989;DHT22;28622;43.716;20.668;2022-10-23T13:32:25;26.30;80.10
42989;DHT22;28622;43.716;20.668;2022-10-23T13:34:53;26.20;76.70
42989;DHT22;28622;43.716;20.668;2022-10-23T13:37:29;26.20;80.00
42989;DHT22;28622;43.716;20.668;2022-10-23T13:40:04;26.00;79.10
42989;DHT22;28622;43.716;20.668;2022-10-23T13:42:30;25.80;80.30
42989;DHT22;28622;43.716;20.668;2022-10-23T13:44:56;26.00;83.50
42989;DHT22;28622;43.716;20.668;2022-10-23T13:47:22;26.30;83.20
42989;DHT22;28622;43.716;20.668;2022-10-23T13:49:48;26.60;79.50
42989;DHT22;28622;43.716;20.668;2022-10-23T13:52:16;26.80;80.30
42989;DHT22;28622;43.716;20.668;2022-10-23T13:54:44;26.80;78.00
42989;DHT22;28622;43.716;20.668;2022-10-23T13:57:14;26.60;77.00
42989;DHT22;28622;43.716;20.668;2022-10-23T13:59:40;26.70;79.10
42989;DHT22;28622;43.716;20.668;2022-10-23T14:02:20;26.80;77.10
42989;DHT22;28622;43.716;20.668;2022-10-23T14:04:48;26.80;79.40
42989;DHT22;28622;43.716;20.668;2022-10-23T14:07:14;26.90;78.10
42989;DHT22;28622;43.716;20.668;2022-10-23T14:09:40;27.00;80.20
42989;DHT22;28622;43.716;20.668;2022-10-23T14:12:06;27.00;76.80
42989;DHT22;28622;43.716;20.668;2022-10-23T14:14:32;26.60;75.90
42989;DHT22;28622;43.716;20.668;2022-10-23T14:16:58;26.30;76.40
42989;DHT22;28622;43.716;20.668;2022-10-23T14:19:24;26.00;76.40
42989;DHT22;28622;43.716;20.668;2022-10-23T14:21:50;25.90;80.60
42989;DHT22;28622;43.716;20.668;2022-10-23T14:24:16;25.70;78.60
42989;DHT22;28622;43.716;20.668;2022-10-23T14:26:41;25.70;79.80
42989;DHT22;28622;43.716;20.668;2022-10-23T14:29:07;25.50;79.00
42989;DHT22;28622;43.716;20.668;2022-10-23T14:31:33;25.40;81.00
42989;DHT22;28622;43.716;20.668;2022-10-23T14:33:59;25.40;81.20
42989;DHT22;28622;43.716;20.668;2022-10-23T14:36:27;25.20;81.30
42989;DHT22;28622;43.716;20.668;2022-10-23T14:38:57;25.20;82.50
42989;DHT22;28622;43.716;20.668;2022-10-23T14:41:24;25.00;81.30
42989;DHT22;28622;43.716;20.668;2022-10-23T14:43:51;24.90;84.10
42989;DHT22;28622;43.716;20.668;2022-10-23T14:46:20;24.80;84.50
42989;DHT22;28622;43.716;20.668;2022-10-23T14:48:46;24.80;86.20
42989;DHT22;28622;43.716;20.668;2022-10-23T14:51:24;24.70;87.50
42989;DHT22;28622;43.716;20.668;2022-10-23T14:54:00;24.60;88.20
42989;DHT22;28622;43.716;20.668;2022-10-23T14:56:28;24.40;88.20
42989;DHT22;28622;43.716;20.668;2022-10-23T14:58:54;24.30;89.10
42989;DHT22;28622;43.716;20.668;2022-10-23T15:01:28;24.20;90.10
42989;DHT22;28622;43.716;20.668;2022-10-23T15:03:53;24.20;90.50
42989;DHT22;28622;43.716;20.668;2022-10-23T15:06:22;24.10;90.60
42989;DHT22;28622;43.716;20.668;2022-10-23T15:08:54;24.00;90.00
42989;DHT22;28622;43.716;20.668;2022-10-23T15:11:21;23.90;89.50
42989;DHT22;28622;43.716;20.668;2022-10-23T15:13:47;23.80;90.10
42989;DHT22;28622;43.716;20.668;2022-10-23T15:16:13;23.60;90.90
42989;DHT22;28622;43.716;20.668;2022-10-23T15:18:39;23.50;91.70
42989;DHT22;28622;43.716;20.668;2022-10-23T15:21:06;23.40;93.00
42989;DHT22;28622;43.716;20.668;2022-10-23T15:23:33;23.40;93.00
42989;DHT22;28622;43.716;20.668;2022-10-23T15:26:02;23.20;92.70
42989;DHT22;28622;43.716;20.668;2022-10-23T15:28:29;23.00;92.70
42989;DHT22;28622;43.716;20.668;2022-10-23T15:30:55;22.70;91.00
42989;DHT22;28622;43.716;20.668;2022-10-23T15:33:21;22.40;91.50
42989;DHT22;28622;43.716;20.668;2022-10-23T15:35:47;22.20;92.50
42989;DHT22;28622;43.716;20.668;2022-10-23T15:38:13;22.00;92.90
42989;DHT22;28622;43.716;20.668;2022-10-23T15:40:40;21.80;93.50
42989;DHT22;28622;43.716;20.668;2022-10-23T15:43:06;21.60;93.80
42989;DHT22;28622;43.716;20.668;2022-10-23T15:45:32;21.50;94.10
42989;DHT22;28622;43.716;20.668;2022-10-23T15:47:57;21.20;94.40
42989;DHT22;28622;43.716;20.668;2022-10-23T15:50:23;21.00;95.00
42989;DHT22;28622;43.716;20.668;2022-10-23T15:52:49;20.90;95.30
42989;DHT22;28622;43.716;20.668;2022-10-23T15:55:18;20.80;95.70
42989;DHT22;28622;43.716;20.668;2022-10-23T15:57:43;20.60;95.90
42989;DHT22;28622;43.716;20.668;2022-10-23T16:00:11;20.60;96.20
42989;DHT22;28622;43.716;20.668;2022-10-23T16:02:37;20.50;96.70
42989;DHT22;28622;43.716;20.668;2022-10-23T16:05:03;20.30;97.00
42989;DHT22;28622;43.716;20.668;2022-10-23T16:07:29;20.10;97.10
42989;DHT22;28622;43.716;20.668;2022-10-23T16:09:55;19.90;97.60
42989;DHT22;28622;43.716;20.668;2022-10-23T16:12:20;19.80;98.00
42989;DHT22;28622;43.716;20.668;2022-10-23T16:14:46;19.70;98.50
42989;DHT22;28622;43.716;20.668;2022-10-23T16:17:12;19.90;99.90
42989;DHT22;28622;43.716;20.668;2022-10-23T16:19:39;19.90;99.00
42989;DHT22;28622;43.716;20.668;2022-10-23T16:22:05;19.90;98.90
42989;DHT22;28622;43.716;20.668;2022-10-23T16:24:31;19.70;99.00
42989;DHT22;28622;43.716;20.668;2022-10-23T16:26:57;19.50;99.60
42989;DHT22;28622;43.716;20.668;2022-10-23T16:29:24;19.40;99.90
42989;DHT22;28622;43.716;20.668;2022-10-23T16:31:55;19.30;99.90
42989;DHT22;28622;43.716;20.668;2022-10-23T16:34:21;19.10;99.90
42989;DHT22;28622;43.716;20.668;2022-10-23T16:36:47;19.00;99.90
42989;DHT22;28622;43.716;20.668;2022-10-23T16:39:15;18.80;99.90
42989;DHT22;28622;43.716;20.668;2022-10-23T16:41:41;18.70;99.90
42989;DHT22;28622;43.716;20.668;2022-10-23T16:44:07;18.60;99.90
42989;DHT22;28622;43.716;20.668;2022-10-23T16:46:33;18.60;99.90
42989;DHT22;28622;43.716;20.668;2022-10-23T16:49:00;18.60;99.90
42989;DHT22;28622;43.716;20.668;2022-10-23T16:51:29;18.60;99.90
42989;DHT22;28622;43.716;20.668;2022-10-23T16:53:57;18.50;99.90
42989;DHT22;28622;43.716;20.668;2022-10-23T16:58:53;18.30;99.90
42989;DHT22;28622;43.716;20.668;2022-10-23T17:01:22;18.30;99.90
42989;DHT22;28622;43.716;20.668;2022-10-23T17:03:50;18.10;99.90
42989;DHT22;28622;43.716;20.668;2022-10-23T17:06:22;18.00;99.90
42989;DHT22;28622;43.716;20.668;2022-10-23T17:08:48;18.00;99.90
42989;DHT22;28622;43.716;20.668;2022-10-23T17:11:16;17.90;99.90
42989;DHT22;28622;43.716;20.668;2022-10-23T17:14:05;17.90;99.90
42989;DHT22;28622;43.716;20.668;2022-10-23T17:19:07;17.50;99.90
42989;DHT22;28622;43.716;20.668;2022-10-23T17:21:35;17.60;99.90
42989;DHT22;28622;43.716;20.668;2022-10-23T17:24:01;17.50;99.90